San Pedro, California
Current Conditions -  °F | °C
As of 7:47 PM on Wednesday 17 Dec 2014 (Local Time) from KTOA Reporting Station
Scattered Clouds Scattered Clouds  
Wind Chill: 55°   Ceiling: Unl
Heat Index: 55°   Visibility: 20mi
Dew Point: 48°   Wind: 6mph
Humidity: 77%   Direction: NA
Pressure: 30.1"   Gusts: NA
Location:  33.74°N, 118.29°W
Report Text: KTOA 180347Z VRB05KT 20SM FEW030 SCT150 13/09 A3010
Loading
Personal Weather Stations






























Interactive Weather Map New forecast layout! Learn more

10-Day Weather Forecast

Advertisements
Track Severe Weather on mobile